createdAt,value
2023-02-12T00:02:02.641Z,100195.66
2023-02-12T00:04:29.088Z,100198.25
2023-02-12T00:06:55.539Z,100190.13
2023-02-12T00:09:22.073Z,100191.94
2023-02-12T00:11:48.557Z,100196.81
2023-02-12T00:14:15.022Z,100197.25
2023-02-12T00:16:41.417Z,100193.03
2023-02-12T00:19:07.851Z,100186.50
2023-02-12T00:21:36.044Z,100156.16
2023-02-12T00:24:02.716Z,100194.16
2023-02-12T00:26:29.458Z,100194.41
2023-02-12T00:28:56.255Z,100185.50
2023-02-12T00:31:29.237Z,100199.44
2023-02-12T00:33:59.551Z,100183.88
2023-02-12T00:36:28.805Z,100195.59
2023-02-12T00:38:56.297Z,100200.88
2023-02-12T00:41:24.882Z,100196.75
2023-02-12T00:43:52.409Z,100192.16
2023-02-12T00:46:19.584Z,100185.31
2023-02-12T00:48:46.082Z,100150.44
2023-02-12T00:51:12.914Z,100194.50
2023-02-12T00:53:39.621Z,100195.06
2023-02-12T00:56:07.335Z,100187.84
2023-02-12T00:58:33.782Z,100192.97
2023-02-12T01:01:00.326Z,100197.34
2023-02-12T01:03:26.759Z,100200.88
2023-02-12T01:05:54.138Z,100198.34
2023-02-12T01:08:21.399Z,100196.56
2023-02-12T01:10:55.017Z,100194.06
2023-02-12T01:13:21.648Z,100206.00
2023-02-12T01:15:48.188Z,100210.84
2023-02-12T01:18:16.217Z,100211.88
2023-02-12T01:20:43.382Z,100207.91
2023-02-12T01:23:09.854Z,100203.88
2023-02-12T01:25:38.702Z,100217.50
2023-02-12T01:28:05.229Z,100214.31
2023-02-12T01:30:31.668Z,100210.44
2023-02-12T01:32:58.244Z,100213.88
2023-02-12T01:35:24.735Z,100211.63
2023-02-12T01:37:51.117Z,100202.97
2023-02-12T01:40:18.228Z,100205.75
2023-02-12T01:42:45.936Z,100205.75
2023-02-12T01:45:12.356Z,100211.13
2023-02-12T01:47:44.295Z,100201.69
2023-02-12T01:50:15.319Z,100202.94
2023-02-12T01:52:48.248Z,100192.78
2023-02-12T01:55:15.725Z,100188.19
2023-02-12T01:57:45.682Z,100197.59
2023-02-12T02:00:16.170Z,100190.84
2023-02-12T02:02:51.314Z,100192.72
2023-02-12T02:05:27.005Z,100183.31
2023-02-12T02:07:54.086Z,100185.44
2023-02-12T02:10:20.556Z,100192.28
2023-02-12T02:13:05.856Z,100191.97
2023-02-12T02:15:33.136Z,100194.63
2023-02-12T02:18:30.085Z,100191.81
2023-02-12T02:21:11.712Z,100194.31
2023-02-12T02:23:55.556Z,100191.53
2023-02-12T02:26:54.809Z,100190.34
2023-02-12T02:29:56.987Z,100178.81
2023-02-12T02:32:27.019Z,100186.34
2023-02-12T02:35:01.131Z,100189.50
2023-02-12T02:37:36.037Z,100184.47
2023-02-12T02:40:19.392Z,100179.28
2023-02-12T02:43:00.489Z,100144.97
2023-02-12T02:45:52.384Z,100180.88
2023-02-12T02:48:25.019Z,100173.06
2023-02-12T02:51:04.606Z,100174.06
2023-02-12T02:53:39.701Z,100166.81
2023-02-12T02:56:11.588Z,100172.19
2023-02-12T02:59:10.810Z,100177.41
2023-02-12T03:01:45.023Z,100175.66
2023-02-12T03:04:42.435Z,100174.97
2023-02-12T03:07:13.616Z,100168.84
2023-02-12T03:09:44.861Z,100161.59
2023-02-12T03:12:24.427Z,100165.38
2023-02-12T03:14:58.444Z,100168.19
2023-02-12T03:17:30.392Z,100172.28
2023-02-12T03:20:14.241Z,100174.97
2023-02-12T03:22:48.125Z,100172.81
2023-02-12T03:25:18.018Z,100172.28
2023-02-12T03:27:51.673Z,100172.38
2023-02-12T03:30:18.575Z,100175.72
2023-02-12T03:33:13.604Z,100173.91
2023-02-12T03:36:03.356Z,100179.09
2023-02-12T03:38:36.846Z,100175.72
2023-02-12T03:41:11.393Z,100156.00
2023-02-12T03:43:41.170Z,100174.25
2023-02-12T03:46:20.692Z,100174.25
2023-02-12T03:48:59.560Z,100160.81
2023-02-12T03:51:25.936Z,100171.88
2023-02-12T03:53:52.741Z,100174.50
2023-02-12T03:56:25.383Z,100179.84
2023-02-12T03:58:52.691Z,100172.56
2023-02-12T04:01:19.298Z,100139.34
2023-02-12T04:03:46.681Z,100171.28
2023-02-12T04:06:26.093Z,100171.03
2023-02-12T04:08:55.106Z,100173.41
2023-02-12T04:11:40.689Z,100176.50
2023-02-12T04:14:15.167Z,100180.75
2023-02-12T04:16:51.016Z,100182.53
2023-02-12T04:19:44.642Z,100187.16
2023-02-12T04:22:26.797Z,100193.53
2023-02-12T04:25:10.600Z,100195.66
2023-02-12T04:27:49.236Z,100198.56
2023-02-12T04:30:42.939Z,100194.50
2023-02-12T04:33:13.073Z,100193.72
2023-02-12T04:35:54.747Z,100194.56
2023-02-12T04:38:26.714Z,100189.22
2023-02-12T04:40:53.539Z,100185.50
2023-02-12T04:43:46.189Z,100186.91
2023-02-12T04:46:12.677Z,100189.53
2023-02-12T04:48:51.691Z,100190.06
2023-02-12T04:51:18.221Z,100178.53
2023-02-12T04:53:44.635Z,100180.94
2023-02-12T04:56:13.665Z,100186.16
2023-02-12T04:58:41.110Z,100187.81
2023-02-12T05:01:09.259Z,100174.19
2023-02-12T05:03:36.701Z,100183.50
2023-02-12T05:06:05.506Z,100186.25
2023-02-12T05:08:32.299Z,100183.06
2023-02-12T05:11:05.003Z,100187.16
2023-02-12T05:13:31.776Z,100184.16
2023-02-12T05:15:58.489Z,100181.56
2023-02-12T05:18:25.591Z,100178.69
2023-02-12T05:20:59.988Z,100183.13
2023-02-12T05:23:28.209Z,100186.53
2023-02-12T05:25:55.187Z,100184.59
2023-02-12T05:28:21.812Z,100186.59
2023-02-12T05:30:48.498Z,100189.94
2023-02-12T05:33:15.069Z,100191.63
2023-02-12T05:35:41.819Z,100184.22
2023-02-12T05:38:08.209Z,100186.59
2023-02-12T05:40:35.589Z,100170.78
2023-02-12T05:43:02.394Z,100175.34
2023-02-12T05:45:29.299Z,100181.47
2023-02-12T05:47:56.926Z,100179.78
2023-02-12T05:50:23.502Z,100182.22
2023-02-12T05:53:02.695Z,100173.16
2023-02-12T05:55:29.137Z,100177.94
2023-02-12T05:57:55.635Z,100181.66
2023-02-12T06:00:22.710Z,100186.38
2023-02-12T06:02:49.210Z,100187.38
2023-02-12T06:05:15.715Z,100188.38
2023-02-12T06:07:43.717Z,100185.44
2023-02-12T06:10:10.515Z,100188.59
2023-02-12T06:12:37.010Z,100185.97
2023-02-12T06:15:03.741Z,100184.34
2023-02-12T06:17:30.153Z,100183.97
2023-02-12T06:19:56.558Z,100186.34
2023-02-12T06:22:23.078Z,100186.34
2023-02-12T06:24:49.462Z,100191.44
2023-02-12T06:27:16.005Z,100193.72
2023-02-12T06:29:43.418Z,100197.91
2023-02-12T06:32:13.447Z,100193.06
2023-02-12T06:34:41.700Z,100198.25
2023-02-12T06:37:08.445Z,100197.25
2023-02-12T06:39:34.958Z,100201.59
2023-02-12T06:42:01.401Z,100205.31
2023-02-12T06:44:27.923Z,100210.59
2023-02-12T06:46:54.513Z,100204.84
2023-02-12T06:49:21.018Z,100207.34
2023-02-12T06:51:47.731Z,100209.03
2023-02-12T06:54:15.620Z,100201.19
2023-02-12T06:56:42.220Z,100188.06
2023-02-12T06:59:14.306Z,100218.69
2023-02-12T07:01:41.130Z,100218.03
2023-02-12T07:04:07.739Z,100221.78
2023-02-12T07:06:35.828Z,100222.38
2023-02-12T07:09:04.483Z,100219.19
2023-02-12T07:11:36.181Z,100225.91
2023-02-12T07:14:05.654Z,100219.19
2023-02-12T07:16:32.172Z,100231.44
2023-02-12T07:18:58.768Z,100230.44
2023-02-12T07:21:25.722Z,100236.91
2023-02-12T07:23:53.048Z,100232.13
2023-02-12T07:26:21.395Z,100235.81
2023-02-12T07:28:48.700Z,100244.53
2023-02-12T07:31:18.401Z,100240.25
2023-02-12T07:33:45.617Z,100232.56
2023-02-12T07:36:15.140Z,100240.56
2023-02-12T07:38:42.420Z,100233.22
2023-02-12T07:41:17.643Z,100229.16
2023-02-12T07:43:45.782Z,100234.78
2023-02-12T07:46:16.671Z,100235.06
2023-02-12T07:48:44.100Z,100229.41
2023-02-12T07:51:13.021Z,100232.63
2023-02-12T07:53:39.578Z,100206.16
2023-02-12T07:56:11.640Z,100239.19
2023-02-12T07:58:39.400Z,100244.34
2023-02-12T08:01:19.055Z,100245.19
2023-02-12T08:03:47.248Z,100234.38
2023-02-12T08:06:17.175Z,100247.19
2023-02-12T08:08:43.968Z,100241.53
2023-02-12T08:11:12.126Z,100236.94
2023-02-12T08:13:39.249Z,100234.13
2023-02-12T08:16:09.957Z,100239.66
2023-02-12T08:18:36.548Z,100233.25
2023-02-12T08:21:11.062Z,100233.66
2023-02-12T08:23:38.335Z,100241.59
2023-02-12T08:26:13.321Z,100235.41
2023-02-12T08:28:42.847Z,100248.75
2023-02-12T08:31:13.367Z,100240.81
2023-02-12T08:33:39.832Z,100248.75
2023-02-12T08:36:07.671Z,100251.25
2023-02-12T08:38:34.130Z,100255.97
2023-02-12T08:41:05.844Z,100244.56
2023-02-12T08:43:32.995Z,100249.72
2023-02-12T08:46:26.948Z,100252.66
2023-02-12T08:48:58.578Z,100251.81
2023-02-12T08:51:28.752Z,100259.59
2023-02-12T08:53:57.808Z,100250.47
2023-02-12T08:56:25.351Z,100250.88
2023-02-12T08:58:52.669Z,100248.38
2023-02-12T09:01:24.325Z,100257.44
2023-02-12T09:03:51.864Z,100256.78
2023-02-12T09:06:21.659Z,100254.94
2023-02-12T09:08:48.585Z,100252.72
2023-02-12T09:11:18.254Z,100257.16
2023-02-12T09:13:46.698Z,100262.75
2023-02-12T09:16:14.255Z,100258.31
2023-02-12T09:18:41.062Z,100266.09
2023-02-12T09:21:10.154Z,100260.19
2023-02-12T09:23:36.901Z,100257.91
2023-02-12T09:26:08.329Z,100249.34
2023-02-12T09:28:35.702Z,100258.91
2023-02-12T09:31:10.038Z,100257.97
2023-02-12T09:33:36.581Z,100261.63
2023-02-12T09:36:04.707Z,100258.97
2023-02-12T09:38:32.341Z,100260.75
2023-02-12T09:41:17.174Z,100261.28
2023-02-12T09:44:03.877Z,100261.03
2023-02-12T09:46:48.012Z,100259.91
2023-02-12T09:49:59.760Z,100269.41
2023-02-12T09:52:29.063Z,100266.94
2023-02-12T09:54:56.684Z,100271.28
2023-02-12T09:57:36.332Z,100268.50
2023-02-12T10:00:08.677Z,100267.38
2023-02-12T10:02:40.347Z,100269.06
2023-02-12T10:05:29.194Z,100273.09
2023-02-12T10:08:14.962Z,100266.44
2023-02-12T10:10:52.425Z,100253.88
2023-02-12T10:13:35.039Z,100273.69
2023-02-12T10:16:14.847Z,100274.22
2023-02-12T10:18:53.630Z,100266.25
2023-02-12T10:21:33.023Z,100265.28
2023-02-12T10:24:19.420Z,100274.75
2023-02-12T10:26:52.767Z,100268.06
2023-02-12T10:29:23.254Z,100264.59
2023-02-12T10:32:00.606Z,100266.38
2023-02-12T10:34:33.785Z,100262.47
2023-02-12T10:37:09.989Z,100261.34
2023-02-12T10:39:41.309Z,100260.34
2023-02-12T10:42:24.945Z,100261.34
2023-02-12T10:44:51.427Z,100248.78
2023-02-12T10:47:21.784Z,100254.91
2023-02-12T10:49:57.764Z,100248.72
2023-02-12T10:52:24.249Z,100254.31
2023-02-12T10:54:50.627Z,100250.94
2023-02-12T10:57:39.280Z,100243.72
2023-02-12T11:00:30.726Z,100248.22
2023-02-12T11:03:02.390Z,100235.09
2023-02-12T11:05:31.045Z,100236.81
2023-02-12T11:07:57.627Z,100248.13
2023-02-12T11:10:41.785Z,100243.13
2023-02-12T11:13:27.786Z,100234.56
2023-02-12T11:15:55.518Z,100234.28
2023-02-12T11:18:26.136Z,100239.19
2023-02-12T11:20:57.668Z,100229.09
2023-02-12T11:23:26.177Z,100223.56
2023-02-12T11:26:05.386Z,100220.88
2023-02-12T11:28:34.869Z,100219.47
2023-02-12T11:31:26.254Z,100206.59
2023-02-12T11:34:16.013Z,100216.66
2023-02-12T11:36:52.167Z,100211.59
2023-02-12T11:39:27.170Z,100211.94
2023-02-12T11:41:56.973Z,100196.13
2023-02-12T11:44:30.728Z,100203.19
2023-02-12T11:47:08.740Z,100213.66
2023-02-12T11:49:44.155Z,100213.50
2023-02-12T11:52:34.017Z,100211.47
2023-02-12T11:55:04.721Z,100202.06
2023-02-12T11:57:44.800Z,100199.50
2023-02-12T12:00:19.868Z,100205.00
2023-02-12T12:03:06.786Z,100194.84
2023-02-12T12:05:40.313Z,100192.25
2023-02-12T12:08:16.874Z,100206.63
2023-02-12T12:11:13.105Z,100199.41
2023-02-12T12:13:54.714Z,100187.63
2023-02-12T12:16:49.401Z,100184.13
2023-02-12T12:19:52.319Z,100170.16
2023-02-12T12:22:40.084Z,100187.63
2023-02-12T12:25:15.479Z,100184.25
2023-02-12T12:28:05.527Z,100179.97
2023-02-12T12:31:06.805Z,100179.25
2023-02-12T12:34:03.855Z,100182.22
2023-02-12T12:36:55.609Z,100174.91
2023-02-12T12:39:35.735Z,100171.44
2023-02-12T12:42:20.380Z,100168.88
2023-02-12T12:45:06.526Z,100161.91
2023-02-12T12:47:54.087Z,100166.34
2023-02-12T12:50:34.787Z,100169.41
2023-02-12T12:53:14.470Z,100158.34
2023-02-12T12:55:43.801Z,100170.66
2023-02-12T12:58:43.766Z,100162.38
2023-02-12T13:01:31.592Z,100163.31
2023-02-12T13:04:35.386Z,100159.56
2023-02-12T13:07:04.597Z,100157.31
2023-02-12T13:10:01.738Z,100148.72
2023-02-12T13:12:53.934Z,100151.75
2023-02-12T13:15:49.412Z,100157.50
2023-02-12T13:18:27.841Z,100156.06
2023-02-12T13:20:58.746Z,100153.94
2023-02-12T13:23:49.403Z,100152.88
2023-02-12T13:26:25.818Z,100144.19
2023-02-12T13:29:01.641Z,100149.63
2023-02-12T13:31:33.865Z,100148.19
2023-02-12T13:34:07.889Z,100155.47
2023-02-12T13:36:36.568Z,100151.28
2023-02-12T13:39:18.809Z,100140.47
2023-02-12T13:41:54.079Z,100145.72
2023-02-12T13:44:32.671Z,100133.38
2023-02-12T13:47:08.745Z,100131.41
2023-02-12T13:49:44.326Z,100131.19
2023-02-12T13:52:34.073Z,100132.16
2023-02-12T13:55:14.541Z,100131.00
2023-02-12T13:57:41.277Z,100135.56
2023-02-12T14:00:59.850Z,100130.78
2023-02-12T14:03:29.823Z,100120.50
2023-02-12T14:06:16.195Z,100129.66
2023-02-12T14:08:50.310Z,100120.34
2023-02-12T14:11:21.169Z,100119.13
2023-02-12T14:14:23.184Z,100114.44
2023-02-12T14:16:49.771Z,100115.44
2023-02-12T14:19:50.194Z,100116.09
2023-02-12T14:22:28.784Z,100111.09
2023-02-12T14:24:57.084Z,100116.47
2023-02-12T14:27:30.741Z,100115.19
2023-02-12T14:30:31.603Z,100117.03
2023-02-12T14:33:10.513Z,100110.06
2023-02-12T14:35:40.901Z,100109.88
2023-02-12T14:38:45.802Z,100107.69
2023-02-12T14:41:37.759Z,100113.00
2023-02-12T14:44:30.414Z,100104.47
2023-02-12T14:46:59.799Z,100098.41
2023-02-12T14:49:36.712Z,100099.53
2023-02-12T14:52:14.659Z,100092.53
2023-02-12T14:54:51.064Z,100087.16
2023-02-12T14:57:32.845Z,100092.16
2023-02-12T15:00:17.701Z,100104.06
2023-02-12T15:02:49.626Z,100100.44
2023-02-12T15:05:23.537Z,100095.66
2023-02-12T15:07:59.094Z,100095.59
2023-02-12T15:10:32.398Z,100099.66
2023-02-12T15:13:14.054Z,100090.47
2023-02-12T15:15:50.731Z,100096.09
2023-02-12T15:18:44.636Z,100094.59
2023-02-12T15:21:22.889Z,100084.69
2023-02-12T15:24:11.457Z,100092.72
2023-02-12T15:26:42.558Z,100093.69
2023-02-12T15:29:25.257Z,100087.69
2023-02-12T15:31:57.958Z,100085.50
2023-02-12T15:34:27.910Z,100089.41
2023-02-12T15:36:58.467Z,100088.19
2023-02-12T15:39:26.286Z,100087.53
2023-02-12T15:41:52.909Z,100089.94
2023-02-12T15:44:22.317Z,100082.09
2023-02-12T15:47:08.798Z,100084.09
2023-02-12T15:49:37.478Z,100077.66
2023-02-12T15:52:10.075Z,100076.38
2023-02-12T15:54:37.919Z,100077.03
2023-02-12T15:57:11.222Z,100075.66
2023-02-12T15:59:37.815Z,100079.16
2023-02-12T16:02:04.478Z,100071.75
2023-02-12T16:04:34.137Z,100066.69
2023-02-12T16:07:01.772Z,100079.50
2023-02-12T16:09:31.949Z,100069.25
2023-02-12T16:12:11.212Z,100061.75
2023-02-12T16:14:44.731Z,100084.47
2023-02-12T16:17:22.542Z,100081.91
2023-02-12T16:20:09.364Z,100077.06
2023-02-12T16:22:41.916Z,100076.06
2023-02-12T16:25:21.988Z,100072.69
2023-02-12T16:28:07.435Z,100080.75
2023-02-12T16:30:45.042Z,100087.56
2023-02-12T16:33:39.325Z,100081.75
2023-02-12T16:36:14.080Z,100080.53
2023-02-12T16:38:44.881Z,100084.25
2023-02-12T16:41:20.485Z,100083.34
2023-02-12T16:43:50.856Z,100090.22
2023-02-12T16:46:20.423Z,100092.41
2023-02-12T16:48:51.620Z,100096.19
2023-02-12T16:51:31.554Z,100098.16
2023-02-12T16:54:00.242Z,100077.63
2023-02-12T16:56:29.260Z,100098.63
2023-02-12T16:59:00.902Z,100093.44
2023-02-12T17:01:30.948Z,100106.81
2023-02-12T17:03:59.292Z,100102.81
2023-02-12T17:06:28.714Z,100107.31
2023-02-12T17:08:55.719Z,100096.16
2023-02-12T17:11:24.004Z,100101.63
2023-02-12T17:13:52.531Z,100102.91
2023-02-12T17:16:30.374Z,100109.00
2023-02-12T17:18:57.782Z,100110.44
2023-02-12T17:21:26.879Z,100111.25
2023-02-12T17:23:56.494Z,100125.19
2023-02-12T17:26:24.641Z,100126.63
2023-02-12T17:28:51.077Z,100125.00
2023-02-12T17:31:17.759Z,100128.59
2023-02-12T17:33:44.465Z,100123.34
2023-02-12T17:36:12.212Z,100125.56
2023-02-12T17:38:38.690Z,100125.84
2023-02-12T17:41:11.155Z,100131.72
2023-02-12T17:43:37.792Z,100136.03
2023-02-12T17:46:17.115Z,100134.22
2023-02-12T17:48:43.696Z,100136.72
2023-02-12T17:51:11.646Z,100126.16
2023-02-12T17:53:42.736Z,100138.00
2023-02-12T17:56:17.350Z,100139.53
2023-02-12T17:58:45.093Z,100136.91
2023-02-12T18:01:16.733Z,100146.19
2023-02-12T18:03:43.464Z,100147.47
2023-02-12T18:06:13.948Z,100147.84
2023-02-12T18:08:41.895Z,100151.50
2023-02-12T18:11:12.219Z,100151.22
2023-02-12T18:13:39.316Z,100146.50
2023-02-12T18:16:07.679Z,100142.59
2023-02-12T18:18:35.320Z,100144.97
2023-02-12T18:21:06.120Z,100147.59
2023-02-12T18:23:32.547Z,100140.22
2023-02-12T18:25:59.032Z,100144.38
2023-02-12T18:28:25.493Z,100139.94
2023-02-12T18:30:57.504Z,100151.72
2023-02-12T18:33:24.596Z,100156.41
2023-02-12T18:36:03.027Z,100145.16
2023-02-12T18:38:30.295Z,100148.06
2023-02-12T18:40:57.197Z,100141.41
2023-02-12T18:43:24.884Z,100136.97
2023-02-12T18:45:51.657Z,100142.78
2023-02-12T18:48:18.351Z,100141.41
2023-02-12T18:50:44.799Z,100135.69
2023-02-12T18:53:11.386Z,100129.97
2023-02-12T18:55:39.352Z,100130.09
2023-02-12T18:58:05.922Z,100136.09
2023-02-12T19:00:32.432Z,100137.44
2023-02-12T19:02:58.855Z,100138.28
2023-02-12T19:05:26.582Z,100144.53
2023-02-12T19:07:53.638Z,100137.72
2023-02-12T19:10:20.259Z,100142.91
2023-02-12T19:12:46.926Z,100147.56
2023-02-12T19:15:13.576Z,100134.00
2023-02-12T19:17:40.104Z,100135.94
2023-02-12T19:20:07.570Z,100140.34
2023-02-12T19:22:35.223Z,100124.81
2023-02-12T19:25:03.249Z,100135.66
2023-02-12T19:27:31.427Z,100139.66
2023-02-12T19:30:00.287Z,100142.84
2023-02-12T19:32:26.818Z,100133.91
2023-02-12T19:34:53.993Z,100132.78
2023-02-12T19:37:21.287Z,100134.22
2023-02-12T19:39:47.715Z,100140.72
2023-02-12T19:42:16.674Z,100137.47
2023-02-12T19:44:44.508Z,100138.06
2023-02-12T19:47:10.998Z,100140.97
2023-02-12T19:49:38.117Z,100140.03
2023-02-12T19:52:05.285Z,100135.88
2023-02-12T19:54:31.737Z,100134.50
2023-02-12T19:56:58.305Z,100133.66
2023-02-12T19:59:27.707Z,100129.38
2023-02-12T20:01:54.769Z,100132.97
2023-02-12T20:04:25.059Z,100130.91
2023-02-12T20:06:52.650Z,100142.00
2023-02-12T20:09:21.142Z,100141.31
2023-02-12T20:11:48.334Z,100138.69
2023-02-12T20:14:15.238Z,100142.75
2023-02-12T20:16:44.579Z,100130.22
2023-02-12T20:19:15.505Z,100135.66
2023-02-12T20:21:43.378Z,100130.09
2023-02-12T20:24:10.017Z,100132.31
2023-02-12T20:26:37.963Z,100119.38
2023-02-12T20:29:05.394Z,100126.31
2023-02-12T20:31:34.442Z,100135.91
2023-02-12T20:34:04.673Z,100126.44
2023-02-12T20:36:36.861Z,100115.03
2023-02-12T20:39:05.790Z,100130.34
2023-02-12T20:41:32.928Z,100128.97
2023-02-12T20:44:00.622Z,100130.06
2023-02-12T20:46:27.589Z,100138.97
2023-02-12T20:48:55.053Z,100138.13
2023-02-12T20:51:26.402Z,100139.13
2023-02-12T20:53:55.563Z,100136.75
2023-02-12T20:56:27.177Z,100131.28
2023-02-12T20:58:54.255Z,100137.44
2023-02-12T21:01:42.459Z,100143.13
2023-02-12T21:04:15.048Z,100141.47
2023-02-12T21:06:42.235Z,100117.81
2023-02-12T21:09:11.075Z,100138.13
2023-02-12T21:11:39.811Z,100132.69
2023-02-12T21:14:23.961Z,100135.75
2023-02-12T21:16:55.001Z,100136.16
2023-02-12T21:19:22.224Z,100133.13
2023-02-12T21:21:48.989Z,100121.13
2023-02-12T21:24:21.592Z,100131.88
2023-02-12T21:26:48.703Z,100139.22
2023-02-12T21:29:15.104Z,100132.03
2023-02-12T21:31:44.726Z,100129.50
2023-02-12T21:34:14.426Z,100132.13
2023-02-12T21:36:42.960Z,100128.66
2023-02-12T21:39:12.932Z,100129.78
2023-02-12T21:41:41.432Z,100141.47
2023-02-12T21:44:14.535Z,100132.56
2023-02-12T21:46:41.846Z,100137.56
2023-02-12T21:49:08.417Z,100138.69
2023-02-12T21:51:38.265Z,100133.66
2023-02-12T21:54:15.882Z,100137.16
2023-02-12T21:56:44.480Z,100140.63
2023-02-12T21:59:11.288Z,100143.41
2023-02-12T22:01:42.425Z,100146.63
2023-02-12T22:04:10.079Z,100138.28
2023-02-12T22:06:38.688Z,100144.41
2023-02-12T22:09:07.905Z,100138.97
2023-02-12T22:11:36.313Z,100132.44
2023-02-12T22:14:04.324Z,100144.53
2023-02-12T22:16:31.191Z,100134.66
2023-02-12T22:19:00.094Z,100149.50
2023-02-12T22:21:28.550Z,100143.19
2023-02-12T22:23:56.722Z,100144.00
2023-02-12T22:26:26.985Z,100125.13
2023-02-12T22:28:56.161Z,100136.69
2023-02-12T22:31:29.241Z,100127.72
2023-02-12T22:33:59.035Z,100140.50
2023-02-12T22:36:26.805Z,100145.94
2023-02-12T22:38:55.487Z,100142.41
2023-02-12T22:41:23.141Z,100142.41
2023-02-12T22:43:51.241Z,100148.59
2023-02-12T22:46:17.875Z,100148.22
2023-02-12T22:48:45.516Z,100135.88
2023-02-12T22:51:22.621Z,100142.31
2023-02-12T22:53:49.537Z,100145.34
2023-02-12T22:56:16.565Z,100148.16
2023-02-12T22:58:43.934Z,100140.47
2023-02-12T23:01:14.124Z,100144.75
2023-02-12T23:03:41.603Z,100144.53
2023-02-12T23:06:11.932Z,100156.25
2023-02-12T23:08:38.559Z,100153.88
2023-02-12T23:11:07.921Z,100141.34
2023-02-12T23:13:36.142Z,100149.25
2023-02-12T23:16:03.167Z,100150.91
2023-02-12T23:18:29.940Z,100145.19
2023-02-12T23:20:56.641Z,100148.22
2023-02-12T23:23:23.385Z,100156.25
2023-02-12T23:25:50.200Z,100150.72
2023-02-12T23:28:17.272Z,100156.34
2023-02-12T23:30:43.807Z,100147.00
2023-02-12T23:33:10.714Z,100153.50
2023-02-12T23:35:37.138Z,100155.66
2023-02-12T23:38:04.413Z,100157.22
2023-02-12T23:40:32.610Z,100154.91
2023-02-12T23:42:59.979Z,100151.03
2023-02-12T23:45:27.143Z,100142.56
2023-02-12T23:47:53.735Z,100144.13
2023-02-12T23:50:21.504Z,100141.19
2023-02-12T23:52:48.226Z,100134.72
2023-02-12T23:55:14.842Z,100137.63
2023-02-12T23:57:41.363Z,100132.75
